Time;durP1;ratioP1;P1;durP2;ratioP2;P2;SDS_P1;SDS_P2;PMS_P1;PMS_P2;Temp;Humidity;BMP_temperature;BMP_pressure;BME280_temperature;BME280_humidity;BME280_pressure;Samples;Min_cycle;Max_cycle;Signal;HPM_P1;HPM_P2
2022/05/21 00:00:29;;;;;;;6.40;5.80;;;20.20;99.90;;;;;;5075849;28;20442;-71
2022/05/21 00:02:56;;;;;;;6.10;5.50;;;20.20;99.90;;;;;;5075388;28;20448;-71
2022/05/21 00:05:25;;;;;;;7.57;5.87;;;20.20;99.90;;;;;;5075512;28;20451;-71
2022/05/21 00:07:54;;;;;;;5.80;5.27;;;20.20;99.90;;;;;;5075535;28;20549;-71
2022/05/21 00:10:22;;;;;;;5.67;5.17;;;20.20;99.90;;;;;;5075384;28;20448;-71
2022/05/21 00:12:49;;;;;;;6.10;5.50;;;20.20;99.90;;;;;;5075035;28;20456;-71
2022/05/21 00:15:19;;;;;;;5.37;4.97;;;20.20;99.90;;;;;;5075213;28;20480;-71
2022/05/21 00:17:46;;;;;;;5.50;5.00;;;20.20;99.90;;;;;;5075179;28;20471;-71
2022/05/21 00:22:56;;;;;;;6.57;5.40;;;20.10;99.90;;;;;;5074595;28;20429;-71
2022/05/21 00:25:23;;;;;;;5.40;5.00;;;20.10;99.90;;;;;;5075216;28;20438;-71
2022/05/21 00:27:50;;;;;;;4.97;4.53;;;20.00;99.90;;;;;;5075193;28;20455;-71
2022/05/21 00:30:17;;;;;;;5.70;5.30;;;20.00;99.90;;;;;;5075231;28;20439;-71
2022/05/21 00:32:44;;;;;;;5.47;4.97;;;20.00;99.90;;;;;;5074873;28;20937;-71
2022/05/21 00:35:11;;;;;;;5.27;4.77;;;19.90;99.90;;;;;;5074707;28;20807;-71
2022/05/21 00:37:38;;;;;;;5.70;5.20;;;19.90;99.90;;;;;;5074902;28;20467;-71
2022/05/21 00:40:07;;;;;;;6.17;5.10;;;19.70;99.90;;;;;;5074859;28;20442;-70
2022/05/21 00:42:34;;;;;;;5.53;4.73;;;19.80;99.90;;;;;;5074571;28;20816;-70
2022/05/21 00:45:01;;;;;;;5.20;4.70;;;19.80;99.90;;;;;;5074516;28;20445;-70
2022/05/21 00:47:28;;;;;;;5.40;4.90;;;19.80;99.90;;;;;;5074698;28;20504;-70
2022/05/21 00:49:55;;;;;;;5.30;4.70;;;19.80;99.90;;;;;;5074653;28;20803;-70
2022/05/21 00:52:24;;;;;;;5.45;5.05;;;19.70;99.90;;;;;;5074299;28;20443;-71
2022/05/21 00:54:54;;;;;;;5.38;4.88;;;19.60;99.90;;;;;;5074808;28;20230;-70
2022/05/21 00:57:27;;;;;;;5.00;4.60;;;19.60;99.90;;;;;;5074219;28;20720;-71
2022/05/21 00:59:57;;;;;;;5.27;4.87;;;19.60;99.90;;;;;;5074524;28;20236;-70
2022/05/21 01:02:28;;;;;;;6.15;5.55;;;19.60;99.90;;;;;;5074091;28;20525;-70
2022/05/21 01:04:57;;;;;;;5.70;5.20;;;19.50;99.90;;;;;;5074444;28;20231;-70
2022/05/21 01:07:25;;;;;;;5.15;4.65;;;19.50;99.90;;;;;;5073505;28;20216;-70
2022/05/21 01:09:55;;;;;;;5.10;4.70;;;19.50;99.90;;;;;;5074231;28;20298;-70
2022/05/21 01:12:25;;;;;;;5.57;5.15;;;19.50;99.90;;;;;;5074069;28;20211;-70
2022/05/21 01:14:53;;;;;;;7.03;4.80;;;19.50;99.90;;;;;;5073935;28;20680;-70
2022/05/21 01:17:22;;;;;;;4.70;4.35;;;19.40;99.90;;;;;;5074147;28;20252;-70
2022/05/21 01:19:57;;;;;;;4.47;4.17;;;19.40;99.90;;;;;;5074094;28;20309;-70
2022/05/21 01:22:27;;;;;;;4.10;3.80;;;19.40;99.90;;;;;;5073797;28;20456;-70
2022/05/21 01:24:53;;;;;;;4.70;4.30;;;19.40;99.90;;;;;;5074855;28;20213;-70
2022/05/21 01:27:20;;;;;;;4.63;4.30;;;19.20;99.90;;;;;;5073958;28;20473;-70
2022/05/21 01:29:51;;;;;;;4.25;3.95;;;19.10;99.90;;;;;;5073967;28;20209;-70
2022/05/21 01:32:19;;;;;;;4.65;4.25;;;19.10;99.90;;;;;;5073673;28;20687;-70
2022/05/21 01:34:46;;;;;;;4.53;4.22;;;19.10;99.90;;;;;;5073818;28;20203;-71
2022/05/21 01:37:12;;;;;;;4.43;4.03;;;19.10;99.90;;;;;;5073469;28;20233;-71
2022/05/21 01:39:41;;;;;;;4.50;4.10;;;19.10;99.90;;;;;;5073831;28;20306;-70
2022/05/21 01:42:08;;;;;;;4.20;3.90;;;18.90;99.90;;;;;;5073894;28;20207;-71
2022/05/21 01:44:40;;;;;;;4.40;4.10;;;18.90;99.90;;;;;;5073750;28;20209;-70
2022/05/21 01:47:08;;;;;;;4.25;3.95;;;18.70;99.90;;;;;;5073524;28;20627;-70
2022/05/21 01:49:36;;;;;;;4.00;3.70;;;18.70;99.90;;;;;;5073725;28;20199;-71
2022/05/21 01:52:03;;;;;;;4.45;4.15;;;18.70;99.90;;;;;;5073728;28;20217;-70
2022/05/21 01:54:31;;;;;;;4.30;4.00;;;18.60;99.90;;;;;;5073610;28;20228;-71
2022/05/21 01:57:00;;;;;;;4.68;4.28;;;18.50;99.90;;;;;;5073548;28;20230;-70
2022/05/21 01:59:27;;;;;;;4.13;3.72;;;18.30;99.90;;;;;;5073603;28;20208;-70
2022/05/21 02:01:55;;;;;;;5.03;4.53;;;18.40;99.90;;;;;;5073452;28;20678;-70
2022/05/21 02:04:22;;;;;;;4.43;4.03;;;18.40;99.90;;;;;;5073330;28;20203;-70
2022/05/21 02:06:49;;;;;;;4.75;4.38;;;18.40;99.90;;;;;;5073519;28;20647;-70
2022/05/21 02:09:16;;;;;;;4.00;3.70;;;18.40;99.90;;;;;;5073359;28;20679;-70
2022/05/21 02:11:45;;;;;;;4.30;4.00;;;18.40;99.90;;;;;;5073377;28;20687;-70
2022/05/21 02:14:14;;;;;;;5.35;3.70;;;18.50;99.90;;;;;;5073296;28;20206;-70
2022/05/21 02:16:40;;;;;;;4.10;3.80;;;18.40;99.90;;;;;;5073112;28;20238;-70
2022/05/21 02:19:08;;;;;;;4.22;3.92;;;18.20;99.90;;;;;;5075521;28;20297;-70
2022/05/21 02:21:40;;;;;;;6.15;4.22;;;18.10;99.90;;;;;;5077555;28;20199;-70
2022/05/21 02:24:08;;;;;;;4.60;4.20;;;18.00;99.90;;;;;;5077328;28;20202;-70
2022/05/21 02:26:36;;;;;;;4.40;4.10;;;18.00;99.90;;;;;;5077170;28;20727;-70
2022/05/21 02:29:03;;;;;;;4.55;4.15;;;18.00;99.90;;;;;;5077107;28;20665;-70
2022/05/21 02:31:31;;;;;;;5.15;4.65;;;18.00;99.90;;;;;;5077119;28;20224;-70
2022/05/21 02:33:58;;;;;;;4.95;4.55;;;18.00;99.90;;;;;;5077360;28;20199;-70
2022/05/21 02:41:50;;;;;;;5.63;5.13;;;18.00;99.90;;;;;;5076931;28;20206;-71
2022/05/21 02:44:17;;;;;;;5.00;4.63;;;17.80;99.90;;;;;;5076821;28;20740;-70
2022/05/21 02:46:45;;;;;;;5.18;4.78;;;17.80;99.90;;;;;;5077042;28;20227;-70
2022/05/21 02:49:12;;;;;;;4.90;4.50;;;17.80;99.90;;;;;;5076988;28;20203;-70
2022/05/21 02:51:39;;;;;;;4.45;4.05;;;17.70;99.90;;;;;;5076945;28;20207;-70
2022/05/21 02:54:06;;;;;;;5.20;4.85;;;17.70;99.90;;;;;;5076340;28;20223;-71
2022/05/21 02:56:35;;;;;;;5.00;4.60;;;17.70;99.90;;;;;;5076710;28;20238;-70
2022/05/21 02:59:06;;;;;;;5.63;5.18;;;17.50;99.90;;;;;;5076773;28;20260;-70
2022/05/21 03:01:33;;;;;;;5.80;5.32;;;17.50;99.90;;;;;;5077108;28;20207;-71
2022/05/21 03:04:01;;;;;;;5.78;5.28;;;17.40;99.90;;;;;;5076554;28;20211;-70
2022/05/21 03:06:28;;;;;;;5.80;5.40;;;17.40;99.90;;;;;;5076570;28;20245;-70
2022/05/21 03:11:39;;;;;;;5.13;4.72;;;17.30;99.90;;;;;;5076848;28;20193;-70
2022/05/21 03:14:06;;;;;;;5.60;5.10;;;17.30;99.90;;;;;;5076243;28;20266;-70
2022/05/21 03:16:33;;;;;;;5.57;5.10;;;17.30;99.90;;;;;;5076320;28;20237;-70
2022/05/21 03:19:02;;;;;;;6.05;5.55;;;17.30;99.90;;;;;;5076369;28;20198;-71
2022/05/21 03:21:29;;;;;;;6.05;5.45;;;17.20;99.90;;;;;;5076418;28;20209;-70
2022/05/21 03:23:56;;;;;;;5.82;5.32;;;17.20;99.90;;;;;;5076174;28;20217;-70
2022/05/21 03:26:23;;;;;;;6.05;5.45;;;17.10;99.90;;;;;;5075901;28;20226;-70
2022/05/21 03:28:50;;;;;;;5.60;5.13;;;17.00;99.90;;;;;;5076352;28;20238;-70
2022/05/21 03:31:17;;;;;;;6.07;5.50;;;17.00;99.90;;;;;;5075336;28;20210;-71
2022/05/21 03:33:44;;;;;;;5.40;5.00;;;16.90;99.90;;;;;;5076017;28;20697;-70
2022/05/21 03:36:12;;;;;;;5.30;4.90;;;16.80;99.90;;;;;;5076132;28;20226;-70
2022/05/21 03:38:39;;;;;;;6.93;6.25;;;16.70;99.90;;;;;;5075957;28;20222;-70
2022/05/21 03:41:06;;;;;;;5.70;5.15;;;16.60;99.90;;;;;;5076082;28;20289;-70
2022/05/21 03:43:33;;;;;;;5.45;5.00;;;16.40;99.90;;;;;;5075728;28;20283;-70
2022/05/21 03:46:00;;;;;;;5.00;4.70;;;16.30;99.90;;;;;;5075857;28;20320;-70
2022/05/21 03:48:27;;;;;;;5.43;4.93;;;16.40;99.90;;;;;;5075955;28;20209;-70
2022/05/21 03:50:54;;;;;;;6.20;5.60;;;16.40;99.90;;;;;;5075820;28;20202;-70
2022/05/21 03:53:22;;;;;;;6.55;5.95;;;16.30;99.90;;;;;;5075355;28;20700;-70
2022/05/21 03:55:51;;;;;;;7.05;6.35;;;16.20;99.90;;;;;;5075752;28;20226;-70
2022/05/21 03:58:18;;;;;;;6.55;5.90;;;16.00;99.90;;;;;;5075821;28;20221;-70
2022/05/21 04:00:44;;;;;;;6.70;6.10;;;16.00;99.90;;;;;;5075608;28;20217;-70
2022/05/21 04:03:11;;;;;;;5.93;5.43;;;16.10;99.90;;;;;;5075475;28;20241;-70
2022/05/21 04:05:38;;;;;;;6.10;5.60;;;16.10;99.90;;;;;;5075433;28;20255;-70
2022/05/21 04:08:05;;;;;;;7.47;5.38;;;16.30;99.90;;;;;;5075550;28;20223;-70
2022/05/21 04:10:34;;;;;;;6.10;5.60;;;16.30;99.90;;;;;;5075487;28;20210;-70
2022/05/21 04:13:01;;;;;;;6.03;5.50;;;16.00;99.90;;;;;;5075189;28;20300;-70
2022/05/21 04:15:27;;;;;;;7.45;6.03;;;16.10;99.90;;;;;;5075559;28;20206;-70
2022/05/21 04:17:55;;;;;;;6.90;5.55;;;16.00;99.90;;;;;;5075565;28;20301;-70
2022/05/21 04:20:23;;;;;;;5.85;5.10;;;16.00;99.90;;;;;;5075478;28;20571;-70
2022/05/21 04:22:50;;;;;;;5.10;4.70;;;16.10;99.90;;;;;;5075039;28;20549;-70
2022/05/21 04:25:17;;;;;;;7.35;6.32;;;16.20;99.90;;;;;;5075207;28;20624;-70
2022/05/21 04:27:45;;;;;;;5.90;5.35;;;16.20;99.90;;;;;;5075025;28;20229;-70
2022/05/21 04:30:16;;;;;;;5.97;4.63;;;16.30;99.90;;;;;;5075111;28;20293;-70
2022/05/21 04:32:44;;;;;;;5.45;5.05;;;16.40;99.90;;;;;;5074875;28;20210;-70
2022/05/21 04:35:11;;;;;;;6.00;5.60;;;16.40;99.90;;;;;;5074853;28;20205;-70
2022/05/21 04:37:39;;;;;;;5.47;5.05;;;16.40;99.90;;;;;;5074617;28;20784;-70
2022/05/21 04:40:09;;;;;;;4.90;4.50;;;16.40;99.90;;;;;;5074910;28;20209;-70
2022/05/21 04:42:36;;;;;;;4.95;4.55;;;16.40;99.90;;;;;;5074372;28;20216;-70
2022/05/21 04:45:06;;;;;;;5.40;5.00;;;16.40;99.90;;;;;;5074833;28;20626;-70
2022/05/21 04:47:34;;;;;;;5.55;5.07;;;16.40;99.90;;;;;;5074711;28;20252;-70
2022/05/21 04:50:00;;;;;;;5.00;4.55;;;16.40;99.90;;;;;;5074636;28;20205;-70
2022/05/21 04:52:28;;;;;;;4.93;4.35;;;16.40;99.90;;;;;;5074389;28;20291;-71
2022/05/21 04:54:55;;;;;;;4.40;4.10;;;16.40;99.90;;;;;;5074285;28;20210;-70
2022/05/21 04:57:21;;;;;;;4.68;4.28;;;16.40;99.90;;;;;;5075098;28;20584;-70
2022/05/21 04:59:48;;;;;;;4.25;3.88;;;16.40;99.90;;;;;;5074484;28;20239;-70
2022/05/21 05:02:16;;;;;;;4.22;3.92;;;16.40;99.90;;;;;;5074282;28;20201;-71
2022/05/21 05:04:43;;;;;;;4.55;4.15;;;16.40;99.90;;;;;;5074395;28;20635;-70
2022/05/21 05:07:10;;;;;;;9.45;7.93;;;16.20;99.90;;;;;;5074050;28;20233;-70
2022/05/21 05:09:41;;;;;;;5.28;4.78;;;16.30;99.90;;;;;;5074308;28;20568;-70
2022/05/21 05:12:09;;;;;;;4.60;4.20;;;16.30;99.90;;;;;;5074093;28;20212;-72
2022/05/21 05:14:36;;;;;;;4.35;3.95;;;16.20;99.90;;;;;;5074218;28;20283;-70
2022/05/21 05:17:04;;;;;;;4.47;4.07;;;16.30;99.90;;;;;;5073927;28;20225;-70
2022/05/21 05:19:33;;;;;;;3.75;3.45;;;16.30;99.90;;;;;;5074133;28;20308;-70
2022/05/21 05:22:00;;;;;;;4.68;4.22;;;16.30;99.90;;;;;;5074070;28;20206;-70
2022/05/21 05:24:27;;;;;;;4.80;4.30;;;16.20;99.90;;;;;;5073933;28;20671;-70
2022/05/21 05:26:53;;;;;;;4.65;4.20;;;16.20;99.90;;;;;;5073936;28;20233;-70
2022/05/21 05:29:20;;;;;;;3.53;3.22;;;16.10;99.90;;;;;;5073875;28;20206;-70
2022/05/21 05:31:47;;;;;;;3.88;3.58;;;16.10;99.90;;;;;;5073987;28;20300;-70
2022/05/21 05:34:14;;;;;;;3.70;3.40;;;16.10;99.90;;;;;;5073699;28;20298;-70
2022/05/21 05:36:42;;;;;;;3.65;3.35;;;16.20;99.90;;;;;;5073707;28;20703;-70
2022/05/21 05:39:09;;;;;;;3.53;3.33;;;16.20;99.90;;;;;;5073903;28;20202;-70
2022/05/21 05:41:38;;;;;;;3.30;3.10;;;16.20;99.90;;;;;;5073889;28;20545;-70
2022/05/21 05:44:05;;;;;;;3.35;3.15;;;16.30;99.90;;;;;;5073642;28;20214;-70
2022/05/21 05:46:32;;;;;;;3.15;2.95;;;16.30;99.90;;;;;;5073618;28;20221;-70
2022/05/21 05:48:59;;;;;;;3.15;2.95;;;16.40;99.90;;;;;;5073430;28;20296;-70
2022/05/21 05:51:26;;;;;;;5.05;4.05;;;16.30;99.90;;;;;;5073716;28;20227;-70
2022/05/21 05:53:55;;;;;;;3.20;3.00;;;16.30;99.90;;;;;;5072846;28;20259;-70
2022/05/21 05:56:22;;;;;;;3.13;2.83;;;16.40;99.90;;;;;;5073818;28;20228;-70
2022/05/21 06:01:39;;;;;;;3.30;3.00;;;16.40;99.90;;;;;;5057885;28;20194;-70
2022/05/21 06:04:06;;;;;;;2.83;2.63;;;16.30;99.90;;;;;;5073428;28;20228;-70
2022/05/21 06:06:32;;;;;;;3.05;2.75;;;16.40;99.90;;;;;;5073409;28;20226;-70
2022/05/21 06:09:01;;;;;;;3.30;2.60;;;16.30;99.90;;;;;;5073548;28;20626;-70
2022/05/21 06:11:27;;;;;;;3.97;3.00;;;16.40;99.90;;;;;;5073400;28;20301;-70
2022/05/21 06:13:54;;;;;;;2.55;2.38;;;16.40;99.90;;;;;;5073069;28;20237;-70
2022/05/21 06:16:21;;;;;;;2.80;2.60;;;16.50;99.90;;;;;;5073525;28;20280;-70
2022/05/21 06:18:50;;;;;;;3.10;2.17;;;16.60;99.90;;;;;;5073471;28;20674;-70
2022/05/21 06:21:17;;;;;;;2.83;2.63;;;16.50;99.90;;;;;;5073368;28;20212;-70
2022/05/21 06:23:44;;;;;;;2.65;2.45;;;16.50;99.90;;;;;;5073386;28;20548;-70
2022/05/21 06:26:13;;;;;;;2.92;2.42;;;16.50;99.90;;;;;;5073151;28;20226;-70
2022/05/21 06:28:40;;;;;;;2.50;2.35;;;16.50;99.90;;;;;;5072954;28;20222;-70
2022/05/21 06:31:07;;;;;;;2.33;2.13;;;16.50;99.90;;;;;;5073324;28;20565;-70
2022/05/21 06:33:34;;;;;;;2.67;2.47;;;16.60;99.90;;;;;;5073136;28;20298;-70
2022/05/21 06:36:06;;;;;;;2.42;2.22;;;16.70;99.90;;;;;;5073137;28;20226;-70
2022/05/21 06:38:35;;;;;;;3.85;3.35;;;16.80;99.90;;;;;;5073291;28;20224;-70
2022/05/21 06:41:02;;;;;;;2.10;2.00;;;16.90;99.90;;;;;;5073139;28;20242;-70
2022/05/21 06:43:30;;;;;;;2.67;2.35;;;16.90;99.90;;;;;;5073063;28;20205;-70
2022/05/21 06:45:58;;;;;;;2.05;1.95;;;16.80;99.90;;;;;;5073123;28;20222;-70
2022/05/21 06:48:25;;;;;;;3.70;3.10;;;16.80;99.20;;;;;;5073090;28;20226;-70
2022/05/21 06:50:51;;;;;;;2.58;2.13;;;16.90;98.90;;;;;;5072906;28;20199;-70
2022/05/21 06:53:18;;;;;;;1.90;1.80;;;17.10;99.70;;;;;;5072683;28;20203;-71
2022/05/21 06:55:45;;;;;;;2.65;1.75;;;17.20;99.70;;;;;;5072728;28;20622;-70
2022/05/21 06:58:12;;;;;;;2.00;1.90;;;17.30;98.00;;;;;;5073284;28;20198;-70
2022/05/21 07:00:40;;;;;;;2.42;2.00;;;17.50;97.70;;;;;;5072858;28;20665;-70
2022/05/21 07:03:07;;;;;;;2.03;1.90;;;17.60;97.30;;;;;;5072548;28;20298;-70
2022/05/21 07:08:21;;;;;;;2.15;2.05;;;17.80;97.60;;;;;;5076877;28;20213;-70
2022/05/21 07:10:48;;;;;;;3.00;2.30;;;17.70;98.00;;;;;;5076562;28;20209;-70
2022/05/21 07:13:16;;;;;;;2.63;1.95;;;18.00;99.20;;;;;;5076222;28;20202;-70
2022/05/21 07:15:47;;;;;;;1.77;1.67;;;18.20;98.40;;;;;;5076469;28;20200;-70
2022/05/21 07:18:17;;;;;;;1.65;1.55;;;18.40;96.80;;;;;;5076580;28;20616;-70
2022/05/21 07:20:44;;;;;;;2.33;2.15;;;18.40;96.70;;;;;;5076389;28;20210;-70
2022/05/21 07:23:11;;;;;;;2.25;1.90;;;18.30;97.40;;;;;;5076241;28;20560;-70
2022/05/21 07:25:39;;;;;;;4.32;1.60;;;18.30;98.60;;;;;;5076095;28;20297;-70
2022/05/21 07:28:08;;;;;;;1.90;1.80;;;18.40;98.30;;;;;;5076370;28;20215;-70
2022/05/21 07:30:36;;;;;;;2.35;2.15;;;18.40;97.80;;;;;;5076281;28;20202;-70
2022/05/21 07:33:05;;;;;;;2.65;1.90;;;18.50;98.10;;;;;;5075937;28;20222;-70
2022/05/21 07:35:34;;;;;;;1.88;1.77;;;18.50;98.10;;;;;;5076158;28;20209;-71
2022/05/21 07:38:01;;;;;;;2.27;2.10;;;18.50;99.50;;;;;;5076227;28;20210;-70
2022/05/21 07:40:27;;;;;;;2.67;1.60;;;18.90;97.50;;;;;;5076117;28;20437;-70
2022/05/21 07:42:54;;;;;;;1.87;1.77;;;19.10;96.60;;;;;;5075858;28;20207;-70
2022/05/21 07:45:22;;;;;;;1.90;1.80;;;19.30;94.80;;;;;;5076020;28;20449;-70
2022/05/21 07:47:50;;;;;;;1.73;1.63;;;19.70;95.50;;;;;;5075546;28;21091;-71
2022/05/21 07:50:20;;;;;;;1.80;1.70;;;20.40;93.30;;;;;;5076346;28;20458;-70
2022/05/21 07:52:46;;;;;;;1.90;1.80;;;20.40;92.20;;;;;;5075873;28;20444;-70
2022/05/21 07:55:14;;;;;;;1.50;1.40;;;20.50;92.30;;;;;;5075862;28;20887;-70
2022/05/21 07:57:41;;;;;;;1.23;1.23;;;20.30;91.70;;;;;;5075849;28;20520;-70
2022/05/21 08:00:10;;;;;;;1.53;1.13;;;20.30;90.00;;;;;;5075707;28;20448;-70
2022/05/21 08:02:41;;;;;;;1.00;1.00;;;20.90;88.00;;;;;;5075251;28;20452;-71
2022/05/21 08:05:08;;;;;;;1.30;1.20;;;21.10;85.10;;;;;;5075839;28;20452;-71
2022/05/21 08:07:36;;;;;;;3.23;1.20;;;21.80;84.30;;;;;;5075488;28;20488;-71
2022/05/21 08:10:04;;;;;;;1.20;1.10;;;22.20;79.70;;;;;;5075463;28;20455;-70
2022/05/21 08:12:32;;;;;;;1.43;1.07;;;22.50;80.90;;;;;;5075265;28;20470;-71
2022/05/21 08:14:58;;;;;;;1.33;1.20;;;23.20;76.50;;;;;;5075906;28;20443;-71
2022/05/21 08:17:25;;;;;;;1.43;1.33;;;24.10;74.50;;;;;;5075001;28;20897;-71
2022/05/21 08:19:52;;;;;;;1.10;1.03;;;23.90;71.20;;;;;;5075355;28;20440;-71
2022/05/21 08:28:04;;;;;;;1.37;1.00;;;26.10;59.70;;;;;;5013170;28;20487;-71
2022/05/21 08:30:32;;;;;;;1.30;1.00;;;26.40;59.30;;;;;;5013281;28;20450;-71
2022/05/21 08:33:00;;;;;;;0.80;0.80;;;27.30;59.30;;;;;;5040591;28;20516;-71
2022/05/21 08:35:27;;;;;;;1.10;1.10;;;27.90;55.20;;;;;;5075068;28;20438;-71
2022/05/21 08:37:54;;;;;;;1.10;1.00;;;28.20;54.50;;;;;;5074975;28;20469;-71
2022/05/21 08:40:24;;;;;;;1.20;1.10;;;28.80;52.40;;;;;;5075344;28;20439;-71
2022/05/21 08:42:56;;;;;;;1.00;1.00;;;28.90;50.80;;;;;;5075319;28;20811;-71
2022/05/21 08:45:41;;;;;;;1.10;1.10;;;29.30;48.80;;;;;;5075143;28;20531;-69
2022/05/21 08:48:10;;;;;;;1.10;1.10;;;29.60;49.80;;;;;;5074442;28;20472;-68
2022/05/21 08:50:42;;;;;;;1.17;1.07;;;28.10;47.80;;;;;;5074736;28;20442;-68
2022/05/21 08:53:14;;;;;;;1.23;0.90;;;28.30;51.60;;;;;;5074458;28;20447;-71
2022/05/21 08:55:46;;;;;;;1.63;1.00;;;28.80;49.70;;;;;;5074583;28;20799;-69
2022/05/21 08:58:17;;;;;;;0.90;0.90;;;29.80;47.40;;;;;;5074683;28;20433;-69
2022/05/21 09:00:46;;;;;;;1.13;1.00;;;29.00;47.50;;;;;;5074511;28;20447;-69
2022/05/21 09:03:17;;;;;;;0.90;0.90;;;29.20;47.00;;;;;;5074291;28;20448;-69
2022/05/21 09:05:50;;;;;;;0.83;0.83;;;29.40;46.60;;;;;;5074247;28;20452;-69
2022/05/21 09:08:23;;;;;;;0.90;0.87;;;30.00;46.20;;;;;;5074543;28;20471;-69
2022/05/21 09:10:56;;;;;;;1.33;0.70;;;30.10;44.70;;;;;;5074476;28;20527;-69
2022/05/21 09:13:35;;;;;;;1.50;1.40;;;31.40;44.30;;;;;;5074194;28;20430;-69
2022/05/21 09:18:59;;;;;;;1.07;1.03;;;30.20;45.50;;;;;;5012352;28;20428;-69
2022/05/21 09:21:28;;;;;;;1.00;1.00;;;29.90;45.30;;;;;;5059314;28;20494;-69
2022/05/21 09:23:57;;;;;;;8.10;7.43;;;30.40;44.30;;;;;;5073973;28;20439;-69
2022/05/21 09:26:28;;;;;;;1.90;1.13;;;31.40;45.90;;;;;;5073789;28;20498;-69
2022/05/21 09:29:13;;;;;;;1.00;1.00;;;31.50;42.80;;;;;;5073070;28;21090;-69
2022/05/21 09:31:40;;;;;;;1.10;1.10;;;30.90;43.70;;;;;;5073811;28;20446;-69
2022/05/21 09:34:19;;;;;;;1.10;1.00;;;30.10;43.30;;;;;;5073715;28;20460;-69
2022/05/21 09:36:46;;;;;;;1.10;1.00;;;30.20;46.00;;;;;;5074314;28;20460;-69
2022/05/21 09:39:32;;;;;;;1.20;1.10;;;30.70;45.30;;;;;;5074015;28;20542;-69
2022/05/21 09:45:22;;;;;;;1.27;1.17;;;32.10;43.10;;;;;;5074058;28;20445;-69
2022/05/21 09:45:23;;;;;;;1.20;1.20;;;32.00;40.60;;;;;;5073667;28;20471;-69
2022/05/21 09:47:50;;;;;;;1.40;1.30;;;30.20;44.30;;;;;;5073742;28;20858;-69
2022/05/21 09:50:22;;;;;;;1.27;1.17;;;30.70;45.10;;;;;;5073828;28;20446;-69
2022/05/21 09:52:49;;;;;;;1.40;1.30;;;31.90;43.80;;;;;;5073489;28;20451;-69
2022/05/21 09:55:23;;;;;;;1.63;1.30;;;30.50;42.10;;;;;;5073638;28;20540;-69
2022/05/21 09:57:52;;;;;;;0.90;0.90;;;29.50;46.10;;;;;;5073391;28;20467;-69
2022/05/21 10:00:24;;;;;;;2.97;1.13;;;30.50;45.10;;;;;;5073651;28;20449;-69
2022/05/21 10:02:53;;;;;;;1.23;1.17;;;30.90;44.70;;;;;;5073398;28;20455;-69
2022/05/21 10:05:25;;;;;;;1.40;1.30;;;31.00;44.90;;;;;;5073522;28;20445;-69
2022/05/21 10:11:02;;;;;;;1.30;1.20;;;30.90;44.30;;;;;;5073891;28;20918;-69
2022/05/21 10:13:44;;;;;;;1.07;1.07;;;30.60;44.80;;;;;;5073412;28;20481;-69
2022/05/21 10:16:32;;;;;;;1.30;1.20;;;29.10;46.70;;;;;;5073228;28;20460;-69
2022/05/21 10:19:05;;;;;;;1.20;1.10;;;28.90;47.50;;;;;;5073662;28;20775;-69
2022/05/21 10:21:37;;;;;;;1.00;1.00;;;29.40;47.00;;;;;;5073588;28;20452;-69
2022/05/21 10:24:09;;;;;;;1.80;1.70;;;30.30;45.90;;;;;;5073015;28;20446;-70
2022/05/21 10:26:48;;;;;;;1.30;1.20;;;31.30;44.30;;;;;;5073401;28;20465;-69
2022/05/21 10:29:45;;;;;;;1.17;1.10;;;31.10;44.00;;;;;;5073158;28;20475;-69
2022/05/21 10:32:20;;;;;;;1.40;1.30;;;31.70;42.60;;;;;;5073090;28;20455;-69
2022/05/21 10:34:57;;;;;;;1.27;1.20;;;31.50;42.60;;;;;;5073090;28;20924;-69
2022/05/21 10:37:48;;;;;;;1.40;1.30;;;30.10;45.20;;;;;;5073366;28;20810;-69
2022/05/21 10:40:31;;;;;;;1.40;1.33;;;30.00;47.10;;;;;;5075363;28;20537;-69
2022/05/21 10:43:23;;;;;;;1.20;1.10;;;29.30;45.20;;;;;;5077042;28;20445;-69
2022/05/21 10:46:06;;;;;;;1.10;1.10;;;27.50;49.20;;;;;;5077166;28;20469;-70
2022/05/21 10:48:56;;;;;;;2.00;1.40;;;27.20;50.30;;;;;;5077115;28;20464;-69
2022/05/21 10:51:33;;;;;;;1.20;1.10;;;26.20;52.50;;;;;;5077096;28;20452;-69
2022/05/21 10:54:20;;;;;;;1.40;1.30;;;25.50;52.90;;;;;;5076613;28;20462;-72
2022/05/21 10:57:00;;;;;;;1.17;1.17;;;24.80;57.80;;;;;;5076888;28;20486;-71
2022/05/21 10:59:41;;;;;;;2.30;1.17;;;24.60;57.70;;;;;;5076867;28;20433;-69
2022/05/21 11:02:35;;;;;;;1.50;1.40;;;24.70;57.10;;;;;;5076495;28;20439;-70
2022/05/21 11:05:20;;;;;;;1.77;1.23;;;24.50;57.60;;;;;;5076796;28;20522;-70
2022/05/21 11:07:52;;;;;;;1.40;1.30;;;24.10;58.40;;;;;;5076399;28;20994;-70
2022/05/21 11:10:26;;;;;;;1.73;1.60;;;23.80;58.90;;;;;;5076652;28;20478;-70
2022/05/21 11:13:00;;;;;;;1.83;1.30;;;23.80;58.90;;;;;;5076428;28;20445;-70
2022/05/21 11:15:40;;;;;;;1.27;1.17;;;23.50;58.20;;;;;;5076514;28;20438;-70
2022/05/21 11:18:16;;;;;;;1.30;1.30;;;23.30;61.00;;;;;;5076557;28;20446;-70
2022/05/21 11:20:48;;;;;;;1.50;1.40;;;23.30;61.10;;;;;;5076530;28;20792;-70
2022/05/21 11:23:23;;;;;;;1.40;1.13;;;23.10;61.60;;;;;;5076331;28;20444;-70
2022/05/21 11:25:56;;;;;;;1.83;1.50;;;23.10;60.30;;;;;;5076373;28;20465;-70
2022/05/21 11:28:31;;;;;;;1.10;1.10;;;23.40;61.70;;;;;;5076072;28;20462;-70
2022/05/21 11:31:02;;;;;;;1.20;1.20;;;23.60;60.60;;;;;;5076597;28;20489;-70
2022/05/21 11:39:02;;;;;;;2.20;1.23;;;24.10;59.30;;;;;;5042733;28;20783;-70
2022/05/21 11:41:58;;;;;;;1.27;1.17;;;24.20;59.30;;;;;;5075880;28;20446;-70
2022/05/21 11:47:34;;;;;;;1.20;1.10;;;24.20;59.50;;;;;;5062775;28;20459;-70
2022/05/21 11:50:18;;;;;;;1.63;1.53;;;24.10;58.10;;;;;;5075937;28;20503;-70
2022/05/21 11:52:55;;;;;;;1.50;1.40;;;23.90;60.40;;;;;;5074976;28;20457;-70
2022/05/21 11:55:27;;;;;;;1.90;1.80;;;24.10;59.40;;;;;;5075779;28;20461;-69
2022/05/21 11:57:56;;;;;;;1.50;1.40;;;24.30;62.00;;;;;;5075926;28;20463;-70
2022/05/21 12:00:49;;;;;;;1.77;1.30;;;24.00;58.00;;;;;;5075793;28;20451;-69
2022/05/21 12:03:24;;;;;;;1.57;1.47;;;23.70;59.20;;;;;;5075471;28;20792;-70
2022/05/21 12:06:18;;;;;;;4.40;1.43;;;23.20;58.40;;;;;;5075658;28;20478;-70
2022/05/21 12:08:48;;;;;;;1.57;1.20;;;23.10;60.20;;;;;;5075388;28;20917;-70
2022/05/21 12:11:45;;;;;;;2.00;1.37;;;23.00;59.90;;;;;;5075391;28;20445;-70
2022/05/21 12:14:22;;;;;;;1.50;1.40;;;23.20;61.20;;;;;;5013712;28;20459;-70
2022/05/21 12:16:53;;;;;;;1.50;1.20;;;23.40;59.70;;;;;;5065331;28;20478;-69
2022/05/21 12:20:09;;;;;;;1.33;1.23;;;23.40;59.00;;;;;;5075603;28;20437;-70
2022/05/21 12:22:52;;;;;;;1.70;1.60;;;23.40;58.40;;;;;;5075385;28;20459;-70
2022/05/21 12:25:57;;;;;;;1.97;1.87;;;23.60;60.20;;;;;;5075545;28;20453;-70
2022/05/21 12:28:45;;;;;;;2.43;1.40;;;23.60;61.00;;;;;;5043642;28;20446;-70
2022/05/21 12:31:19;;;;;;;2.23;1.60;;;23.40;59.20;;;;;;5075180;28;20461;-70
2022/05/21 12:33:54;;;;;;;2.03;1.63;;;23.00;60.00;;;;;;5074982;28;20444;-70
2022/05/21 12:36:36;;;;;;;3.07;1.57;;;22.70;60.10;;;;;;5074905;28;21054;-70
2022/05/21 12:39:08;;;;;;;3.13;1.97;;;22.80;61.60;;;;;;5075124;28;20423;-70
2022/05/21 12:41:39;;;;;;;2.00;1.90;;;23.20;63.40;;;;;;5074985;28;20530;-70
2022/05/21 12:44:07;;;;;;;1.67;1.57;;;23.50;60.80;;;;;;5074549;28;20936;-70
2022/05/21 12:46:36;;;;;;;1.30;1.20;;;23.70;58.50;;;;;;5074783;28;20474;-70
2022/05/21 12:49:04;;;;;;;1.70;1.60;;;23.90;58.30;;;;;;5074802;28;20476;-69
2022/05/21 12:51:37;;;;;;;1.17;1.10;;;23.90;57.70;;;;;;5074851;28;20474;-69
2022/05/21 12:54:08;;;;;;;1.80;1.70;;;24.00;59.90;;;;;;5074337;28;20459;-69
2022/05/21 12:56:38;;;;;;;1.60;1.40;;;24.10;59.70;;;;;;5074684;28;20476;-69
2022/05/21 12:59:08;;;;;;;1.43;1.33;;;24.20;56.20;;;;;;5074827;28;20790;-69
2022/05/21 13:01:36;;;;;;;1.80;1.50;;;24.30;58.50;;;;;;5074505;28;20440;-69
2022/05/21 13:04:03;;;;;;;1.80;1.20;;;24.40;56.60;;;;;;5074457;28;20448;-69
2022/05/21 13:06:32;;;;;;;1.83;1.60;;;24.30;56.30;;;;;;5074313;28;20554;-70
2022/05/21 13:09:01;;;;;;;1.53;1.43;;;23.80;56.40;;;;;;5074115;28;20511;-69
2022/05/21 13:11:40;;;;;;;1.70;1.60;;;23.10;57.50;;;;;;5074373;28;20437;-70
2022/05/21 13:14:11;;;;;;;2.00;1.50;;;22.50;58.90;;;;;;5074464;28;20440;-69
2022/05/21 13:16:48;;;;;;;1.70;1.60;;;22.80;59.00;;;;;;5074474;28;20466;-69
2022/05/21 13:19:50;;;;;;;1.47;1.37;;;23.30;58.60;;;;;;5074286;28;20525;-72
2022/05/21 13:22:24;;;;;;;1.60;1.50;;;23.70;57.60;;;;;;5074230;28;20450;-71
2022/05/21 13:24:58;;;;;;;1.43;1.33;;;23.80;56.50;;;;;;5074826;28;20448;-70
2022/05/21 13:27:26;;;;;;;2.30;1.10;;;23.90;57.60;;;;;;5073842;28;20573;-70
2022/05/21 13:29:54;;;;;;;1.57;1.40;;;24.10;57.90;;;;;;5074004;28;20482;-70
2022/05/21 13:32:25;;;;;;;1.90;1.23;;;24.10;55.50;;;;;;5073640;28;20449;-70
2022/05/21 13:34:54;;;;;;;1.50;1.20;;;23.80;56.30;;;;;;5073904;28;20950;-70
2022/05/21 13:37:29;;;;;;;1.50;1.40;;;23.80;56.30;;;;;;5073797;28;20970;-70
2022/05/21 13:40:01;;;;;;;1.60;1.50;;;23.80;56.80;;;;;;5073900;28;20470;-70
2022/05/21 13:42:30;;;;;;;1.60;1.30;;;23.50;57.10;;;;;;5073734;28;20464;-70